Heat Index SAI AWOS Graphical Display Untitled Document
Sidney Municipal Airport , NY ( N23 )
000
03:47
18/04/23
00
N/A
N/A
30.41
N/A
1027
34(F), 1(C)
29(F), -2(C)
34 F
80%
CLR
10
N/A
N/A
N/A
03:47 zulu Wind Calm, Altimeter 30.41
METAR KN23 230347Z AUTO 00000KT 10SM CLR 01/M02 A3041 A02
METAR:
FAA Disclaimer--Advisory Use ONLY, not for flight info-- 6/29/2009: Sidney Airport, operations 607-561-2346, Pilots with cellphones (smartphones) can now view awos at http://www.saiawos3.com/N23
INFO:
Wind Direction:
Wind Speed:
Wind Gust:
Wind Variable:
Altimeter:
Dens Alt:
Elev:
Temp:
Dwpt:
Wind Chill
Rel Humidity:
Ceiling:
Visibility:
Prsnt Wea:
PCPN:
Remarks:
How to read the WebPage